createdAt,value
2019-03-22T00:01:45.611Z,71.9
2019-03-22T00:06:45.534Z,73.5
2019-03-22T00:11:45.576Z,73
2019-03-22T00:16:45.435Z,72.9
2019-03-22T00:21:45.437Z,73.1
2019-03-22T00:26:45.567Z,72.8
2019-03-22T00:31:45.476Z,73.2
2019-03-22T00:36:45.436Z,74.4
2019-03-22T00:41:45.858Z,74.6
2019-03-22T00:46:45.586Z,74.9
2019-03-22T00:51:45.455Z,74.6
2019-03-22T00:56:45.463Z,74.7
2019-03-22T01:01:45.446Z,76.1
2019-03-22T01:06:45.448Z,76.4
2019-03-22T01:11:45.696Z,75
2019-03-22T01:16:45.622Z,75.8
2019-03-22T01:21:45.445Z,75.5
2019-03-22T01:26:45.470Z,75.8
2019-03-22T01:31:45.602Z,74.7
2019-03-22T01:36:45.644Z,75.7
2019-03-22T01:41:45.653Z,75.6
2019-03-22T01:46:45.476Z,75.2
2019-03-22T01:51:45.457Z,75.5
2019-03-22T01:56:45.492Z,75.4
2019-03-22T02:01:45.485Z,75.6
2019-03-22T02:06:45.657Z,76.8
2019-03-22T02:11:45.500Z,75.6
2019-03-22T02:16:45.592Z,76.1
2019-03-22T02:21:45.641Z,76.5
2019-03-22T02:26:45.614Z,76.3
2019-03-22T02:31:45.568Z,76.5
2019-03-22T02:36:45.662Z,76.5
2019-03-22T02:41:45.712Z,77
2019-03-22T02:46:45.734Z,75.3
2019-03-22T02:51:45.663Z,77.1
2019-03-22T02:56:45.516Z,76.7
2019-03-22T03:01:45.526Z,77.9
2019-03-22T03:06:45.661Z,77.8
2019-03-22T03:11:45.690Z,76.6
2019-03-22T03:16:45.522Z,77.9
2019-03-22T03:21:45.511Z,77.4
2019-03-22T03:26:45.709Z,77.4
2019-03-22T03:31:45.552Z,77.7
2019-03-22T03:36:45.583Z,77.4
2019-03-22T03:41:45.679Z,78
2019-03-22T03:46:45.718Z,77.7
2019-03-22T03:51:45.559Z,77.9
2019-03-22T03:56:45.678Z,78.7
2019-03-22T04:01:45.504Z,78.7
2019-03-22T04:06:45.664Z,78.5
2019-03-22T04:11:45.688Z,79.1
2019-03-22T04:16:45.702Z,79.3
2019-03-22T04:21:45.565Z,78.6
2019-03-22T04:26:45.797Z,79.1
2019-03-22T04:31:45.588Z,79.9
2019-03-22T04:36:45.559Z,79.8
2019-03-22T04:41:45.585Z,79.4
2019-03-22T04:46:45.716Z,80
2019-03-22T04:51:45.568Z,79.9
2019-03-22T04:56:45.579Z,79.2
2019-03-22T05:01:45.726Z,78.4
2019-03-22T05:06:45.708Z,79.4
2019-03-22T05:11:45.804Z,79.7
2019-03-22T05:16:45.729Z,79
2019-03-22T05:21:45.762Z,79.9
2019-03-22T05:26:45.641Z,77.9
2019-03-22T05:31:45.839Z,78.3
2019-03-22T05:36:45.747Z,80.4
2019-03-22T05:41:45.610Z,81.3
2019-03-22T05:46:45.589Z,81.9
2019-03-22T05:51:45.596Z,80.2
2019-03-22T05:56:45.600Z,81.6
2019-03-22T06:01:45.793Z,81.2
2019-03-22T06:06:45.635Z,81.1
2019-03-22T06:11:45.596Z,81.5
2019-03-22T06:16:45.636Z,80.1
2019-03-22T06:21:45.620Z,81.4
2019-03-22T06:26:45.604Z,81.1
2019-03-22T06:31:45.617Z,79.8
2019-03-22T06:36:45.619Z,79.5
2019-03-22T06:41:45.621Z,77.4
2019-03-22T06:46:45.625Z,77
2019-03-22T06:51:45.658Z,77.1
2019-03-22T06:56:45.661Z,75.6
2019-03-22T07:01:45.593Z,76.8
2019-03-22T07:06:45.646Z,75.7
2019-03-22T07:11:45.672Z,75.5
2019-03-22T07:16:45.641Z,74.7
2019-03-22T07:21:45.664Z,73.6
2019-03-22T07:26:45.644Z,70.3
2019-03-22T07:31:45.661Z,71.1
2019-03-22T07:36:47.269Z,70.5
2019-03-22T07:41:45.666Z,69.8
2019-03-22T07:46:45.667Z,67.9
2019-03-22T07:51:45.686Z,69.3
2019-03-22T07:56:45.681Z,68.7
2019-03-22T08:01:45.671Z,66.3
2019-03-22T08:06:45.676Z,66.3
2019-03-22T08:11:45.677Z,62.2
2019-03-22T08:16:45.686Z,53.9
2019-03-22T08:21:45.702Z,54
2019-03-22T08:26:45.722Z,51.1
2019-03-22T08:31:45.763Z,50.9
2019-03-22T08:36:45.643Z,49.3
2019-03-22T08:41:45.706Z,48.4
2019-03-22T08:46:45.686Z,47.3
2019-03-22T08:51:45.681Z,47
2019-03-22T08:56:45.752Z,45.6
2019-03-22T09:01:45.711Z,44.6
2019-03-22T09:06:45.722Z,45.6
2019-03-22T09:11:45.787Z,43.8
2019-03-22T09:16:45.719Z,43.6
2019-03-22T09:21:45.707Z,42.9
2019-03-22T09:26:48.210Z,43.2
2019-03-22T09:31:45.801Z,42.3
2019-03-22T09:36:45.798Z,41.5
2019-03-22T09:41:45.765Z,40.3
2019-03-22T09:46:45.720Z,39.3
2019-03-22T09:51:45.814Z,39.5
2019-03-22T09:56:47.724Z,40.3
2019-03-22T10:01:45.783Z,40.7
2019-03-22T10:06:45.809Z,39.4
2019-03-22T10:11:46.821Z,39.2
2019-03-22T10:16:47.984Z,39.7
2019-03-22T10:21:45.752Z,40.8
2019-03-22T10:26:45.819Z,40.9
2019-03-22T10:31:45.745Z,38.9
2019-03-22T10:36:47.220Z,39.2
2019-03-22T10:41:45.923Z,39.8
2019-03-22T10:46:45.704Z,39.1
2019-03-22T10:51:58.005Z,39.5
2019-03-22T10:56:45.908Z,39.9
2019-03-22T11:02:03.453Z,39.5
2019-03-22T11:06:45.992Z,39.6
2019-03-22T11:11:46.255Z,39.5
2019-03-22T11:16:45.946Z,41
2019-03-22T11:21:45.765Z,40.2
2019-03-22T11:26:45.776Z,39.4
2019-03-22T11:31:45.770Z,38.5
2019-03-22T11:36:45.996Z,38.1
2019-03-22T11:41:45.911Z,39.9
2019-03-22T11:46:45.912Z,38.8
2019-03-22T11:51:45.984Z,39.4
2019-03-22T11:56:55.568Z,40.4
2019-03-22T12:01:55.338Z,39.7
2019-03-22T12:06:55.531Z,41.4
2019-03-22T12:11:55.341Z,40.1
2019-03-22T12:16:56.883Z,39.9
2019-03-22T12:21:55.538Z,39.9
2019-03-22T12:26:55.340Z,40.7
2019-03-22T12:31:55.347Z,40.7
2019-03-22T12:36:55.352Z,41.2
2019-03-22T12:41:55.558Z,41.1
2019-03-22T12:46:55.483Z,39.9
2019-03-22T12:51:55.344Z,39.7
2019-03-22T12:56:55.558Z,40.4
2019-03-22T13:01:55.612Z,40.1
2019-03-22T13:06:55.416Z,39.3
2019-03-22T13:11:55.351Z,39.9
2019-03-22T13:16:55.365Z,41.1
2019-03-22T13:21:55.350Z,41.2
2019-03-22T13:26:55.371Z,41.2
2019-03-22T13:31:55.366Z,41.1
2019-03-22T13:36:55.390Z,41.7
2019-03-22T13:41:55.385Z,40.9
2019-03-22T13:46:55.375Z,40.7
2019-03-22T13:51:55.407Z,41.4
2019-03-22T13:56:55.416Z,40.6
2019-03-22T14:01:55.647Z,40.7
2019-03-22T14:06:55.385Z,41.4
2019-03-22T14:11:55.380Z,40.5
2019-03-22T14:16:55.394Z,41.1
2019-03-22T14:21:55.414Z,41.1
2019-03-22T14:26:55.409Z,41.6
2019-03-22T14:31:55.409Z,41.2
2019-03-22T14:36:55.421Z,41.2
2019-03-22T14:41:55.421Z,41.1
2019-03-22T14:46:55.424Z,41
2019-03-22T14:51:55.394Z,41.7
2019-03-22T14:56:55.445Z,41.6
2019-03-22T15:01:55.443Z,42
2019-03-22T15:06:55.379Z,41.8
2019-03-22T15:11:55.425Z,42.3
2019-03-22T15:16:55.425Z,41.9
2019-03-22T15:21:55.424Z,42.2
2019-03-22T15:26:55.425Z,41
2019-03-22T15:31:55.455Z,42.3
2019-03-22T15:36:58.413Z,42.1
2019-03-22T15:41:55.449Z,42.4
2019-03-22T15:46:55.471Z,43.2
2019-03-22T15:51:55.456Z,43.8
2019-03-22T15:56:55.453Z,44
2019-03-22T16:01:55.446Z,44.6
2019-03-22T16:06:55.471Z,44.9
2019-03-22T16:11:55.471Z,45.1
2019-03-22T16:16:55.465Z,45
2019-03-22T16:21:55.470Z,45.4
2019-03-22T16:26:55.460Z,46.2
2019-03-22T16:31:55.456Z,46.5
2019-03-22T16:36:55.457Z,46.4
2019-03-22T16:41:55.515Z,48
2019-03-22T16:46:55.597Z,47.1
2019-03-22T16:51:55.491Z,47.3
2019-03-22T16:56:55.476Z,47.9
2019-03-22T17:01:55.491Z,48.6
2019-03-22T17:06:55.566Z,48.4
2019-03-22T17:11:55.439Z,49.5
2019-03-22T17:16:55.491Z,48.9
2019-03-22T17:21:55.555Z,49.9
2019-03-22T17:26:55.496Z,50.4
2019-03-22T17:31:55.479Z,50.8
2019-03-22T17:36:55.534Z,51.2
2019-03-22T17:41:55.539Z,50.7
2019-03-22T17:46:55.524Z,51.1
2019-03-22T17:51:55.508Z,51.8
2019-03-22T17:56:55.542Z,52.3
2019-03-22T18:01:55.719Z,52.1
2019-03-22T18:06:55.511Z,52.8
2019-03-22T18:11:55.509Z,52.5
2019-03-22T18:16:55.507Z,52.7
2019-03-22T18:21:55.556Z,53
2019-03-22T18:26:55.542Z,53.3
2019-03-22T18:31:55.491Z,52.8
2019-03-22T18:36:55.571Z,54
2019-03-22T18:41:55.537Z,53.3
2019-03-22T18:46:55.536Z,53.5
2019-03-22T18:51:55.538Z,53.6
2019-03-22T18:56:55.557Z,54
2019-03-22T19:01:55.571Z,54.6
2019-03-22T19:06:55.576Z,54.6
2019-03-22T19:11:55.598Z,55
2019-03-22T19:16:55.549Z,55.4
2019-03-22T19:21:55.555Z,56
2019-03-22T19:26:55.721Z,55.3
2019-03-22T19:31:55.600Z,56.3
2019-03-22T19:36:55.688Z,57.4
2019-03-22T19:41:55.580Z,56.6
2019-03-22T19:46:55.598Z,57.6
2019-03-22T19:51:55.600Z,57.5
2019-03-22T19:56:55.619Z,58.1
2019-03-22T20:01:56.022Z,58.3
2019-03-22T20:06:55.960Z,58.2
2019-03-22T20:11:56.385Z,57.9
2019-03-22T20:16:55.819Z,58.8
2019-03-22T20:21:55.681Z,59.5
2019-03-22T20:26:56.564Z,59.9
2019-03-22T20:31:55.616Z,61.1
2019-03-22T20:36:55.659Z,60.9
2019-03-22T20:41:55.888Z,61
2019-03-22T20:46:55.631Z,63
2019-03-22T20:51:55.616Z,64.3
2019-03-22T20:56:55.712Z,64.9
2019-03-22T21:01:55.709Z,66
2019-03-22T21:06:55.674Z,66.6
2019-03-22T21:11:55.761Z,67.6
2019-03-22T21:16:55.963Z,67.3
2019-03-22T21:21:55.667Z,68.1
2019-03-22T21:26:55.646Z,68.3
2019-03-22T21:31:55.615Z,68.7
2019-03-22T21:36:55.681Z,68.5
2019-03-22T21:41:55.713Z,68.5
2019-03-22T21:46:55.675Z,69.7
2019-03-22T21:51:55.643Z,70.4
2019-03-22T21:56:55.623Z,69.7
2019-03-22T22:01:55.892Z,70.9
2019-03-22T22:06:55.638Z,70.1
2019-03-22T22:11:55.804Z,70.4
2019-03-22T22:16:55.863Z,70.1
2019-03-22T22:21:55.769Z,70.6
2019-03-22T22:26:55.974Z,70.4
2019-03-22T22:31:55.654Z,70.2
2019-03-22T22:36:55.657Z,71.9
2019-03-22T22:41:55.648Z,71.6
2019-03-22T22:46:55.762Z,73
2019-03-22T22:51:55.661Z,72.7
2019-03-22T22:56:55.658Z,72.5
2019-03-22T23:01:55.658Z,73
2019-03-22T23:06:55.664Z,72.9
2019-03-22T23:11:55.693Z,72.2
2019-03-22T23:16:55.988Z,72.9
2019-03-22T23:21:55.684Z,72.6
2019-03-22T23:26:55.699Z,72.4
2019-03-22T23:31:55.669Z,71.8
2019-03-22T23:36:55.689Z,72
2019-03-22T23:41:55.660Z,72.5
2019-03-22T23:46:55.704Z,73
2019-03-22T23:51:55.674Z,71.9
2019-03-22T23:56:55.918Z,72.2
